Time;durP1;ratioP1;P1;durP2;ratioP2;P2;SDS_P1;SDS_P2;PMS_P1;PMS_P2;Temp;Humidity;BMP_temperature;BMP_pressure;BME280_temperature;BME280_humidity;BME280_pressure;Samples;Min_cycle;Max_cycle;Signal;HPM_P1;HPM_P2
2021/07/20 00:01:08;;;;;;;9.52;6.18;;;15.80;99.90;;;;;;5104865;28;20036;-82
2021/07/20 00:03:34;;;;;;;8.88;6.00;;;15.80;99.90;;;;;;5103726;28;20060;-82
2021/07/20 00:06:01;;;;;;;9.35;5.60;;;15.80;99.90;;;;;;5076404;28;20028;-82
2021/07/20 00:08:27;;;;;;;11.63;6.63;;;15.80;99.90;;;;;;5107563;27;20050;-82
2021/07/20 00:10:56;;;;;;;11.02;5.32;;;15.90;99.90;;;;;;5104243;28;20035;-81
2021/07/20 00:13:22;;;;;;;12.63;6.00;;;15.90;99.90;;;;;;5103509;28;20140;-82
2021/07/20 00:15:51;;;;;;;10.02;6.20;;;15.90;99.90;;;;;;5089021;28;20058;-81
2021/07/20 00:18:20;;;;;;;9.27;6.15;;;15.90;99.90;;;;;;5085736;28;20044;-81
2021/07/20 00:20:46;;;;;;;8.55;5.72;;;16.00;99.90;;;;;;5105595;28;20534;-81
2021/07/20 00:23:12;;;;;;;7.97;5.35;;;16.00;99.90;;;;;;5072762;28;20051;-81
2021/07/20 00:25:39;;;;;;;10.10;5.32;;;16.00;99.90;;;;;;5097870;28;20136;-81
2021/07/20 00:28:05;;;;;;;10.20;5.95;;;16.00;99.90;;;;;;5088144;28;20123;-81
2021/07/20 00:30:31;;;;;;;9.40;5.45;;;16.00;99.90;;;;;;5109764;28;20036;-82
2021/07/20 00:32:57;;;;;;;10.07;6.47;;;16.10;99.90;;;;;;5089797;28;20035;-81
2021/07/20 00:35:23;;;;;;;9.27;6.03;;;16.10;99.90;;;;;;5103918;28;20503;-81
2021/07/20 00:37:49;;;;;;;;;;;16.00;99.90;;;;;;5102010;28;20159;-81
2021/07/20 00:40:17;;;;;;;10.60;6.22;;;16.00;99.90;;;;;;5100660;28;19962;-82
2021/07/20 00:42:43;;;;;;;10.45;5.72;;;15.90;99.90;;;;;;5087153;28;20034;-82
2021/07/20 00:45:13;;;;;;;10.75;6.35;;;15.80;99.90;;;;;;5110873;28;20202;-82
2021/07/20 00:47:39;;;;;;;10.80;6.03;;;15.80;99.90;;;;;;5103605;27;20028;-81
2021/07/20 00:50:09;;;;;;;8.10;5.82;;;15.80;99.90;;;;;;5083082;28;20032;-82
2021/07/20 00:52:37;;;;;;;7.93;5.55;;;15.80;99.90;;;;;;5104989;28;20054;-81
2021/07/20 00:55:08;;;;;;;9.18;5.60;;;15.80;99.90;;;;;;5089813;28;20062;-80
2021/07/20 00:57:34;;;;;;;9.98;5.95;;;15.80;99.90;;;;;;5106545;28;20035;-79
2021/07/20 01:00:00;;;;;;;;;;;15.80;99.90;;;;;;5086287;28;20044;-79
2021/07/20 01:02:27;;;;;;;8.65;5.95;;;15.80;99.90;;;;;;5105378;28;19957;-80
2021/07/20 01:04:53;;;;;;;9.60;5.97;;;15.80;99.90;;;;;;5108925;28;20390;-80
2021/07/20 01:07:20;;;;;;;9.05;5.75;;;15.90;99.90;;;;;;5085741;28;20042;-81
2021/07/20 01:09:47;;;;;;;8.63;6.18;;;15.80;99.90;;;;;;5108252;28;20149;-81
2021/07/20 01:12:14;;;;;;;10.35;6.50;;;15.80;99.90;;;;;;5108206;28;20032;-81
2021/07/20 01:14:42;;;;;;;10.30;5.90;;;15.80;99.90;;;;;;5111487;28;20039;-80
2021/07/20 01:17:12;;;;;;;10.50;5.65;;;15.80;99.90;;;;;;5112225;28;20044;-80
2021/07/20 01:19:49;;;;;;;10.98;6.18;;;15.80;99.90;;;;;;5103917;28;20424;-80
2021/07/20 01:22:19;;;;;;;9.68;5.60;;;15.80;99.90;;;;;;5107546;28;20085;-81
2021/07/20 01:24:45;;;;;;;9.65;5.75;;;15.80;99.90;;;;;;5105965;28;20112;-81
2021/07/20 01:27:11;;;;;;;;;;;15.80;99.90;;;;;;5110923;28;20492;-81
2021/07/20 01:29:39;;;;;;;9.77;6.23;;;15.80;99.90;;;;;;5093725;28;19919;-81
2021/07/20 01:32:06;;;;;;;9.85;6.03;;;15.80;99.90;;;;;;5103464;28;20035;-80
2021/07/20 01:34:33;;;;;;;10.98;6.13;;;15.80;99.90;;;;;;5111194;28;20088;-80
2021/07/20 01:37:00;;;;;;;9.55;5.90;;;15.80;99.90;;;;;;5110805;28;20122;-81
2021/07/20 01:39:28;;;;;;;9.52;6.03;;;15.80;99.90;;;;;;5103996;28;20433;-81
2021/07/20 01:41:54;;;;;;;11.10;6.57;;;15.80;99.90;;;;;;5111339;28;20044;-79
2021/07/20 01:44:21;;;;;;;11.13;6.30;;;15.80;99.90;;;;;;5102494;28;20043;-80
2021/07/20 01:46:47;;;;;;;10.82;6.35;;;15.80;99.90;;;;;;5112435;28;20542;-80
2021/07/20 01:49:15;;;;;;;9.10;6.47;;;15.80;99.90;;;;;;5113775;28;20035;-80
2021/07/20 01:51:42;;;;;;;10.35;6.35;;;15.80;99.90;;;;;;5113868;28;20129;-80
2021/07/20 01:54:10;;;;;;;9.75;6.25;;;15.80;99.90;;;;;;5105980;28;20078;-80
2021/07/20 01:56:36;;;;;;;13.00;6.50;;;15.80;99.90;;;;;;5111005;28;20043;-81
2021/07/20 01:59:02;;;;;;;;;;;15.80;99.90;;;;;;5109071;28;20043;-79
2021/07/20 02:01:35;;;;;;;13.10;6.23;;;15.80;99.90;;;;;;5090716;28;19916;-80
2021/07/20 02:09:30;;;;;;;11.07;6.60;;;15.80;99.90;;;;;;5102166;28;20036;-81
2021/07/20 02:11:57;;;;;;;14.48;6.57;;;15.90;99.90;;;;;;5087008;28;20053;-80
2021/07/20 02:14:30;;;;;;;10.50;6.15;;;15.90;99.90;;;;;;5107321;28;20032;-81
2021/07/20 02:17:00;;;;;;;13.75;5.93;;;15.90;99.90;;;;;;5102621;28;20047;-81
2021/07/20 02:19:36;;;;;;;10.30;6.88;;;15.90;99.90;;;;;;5093984;28;20043;-82
2021/07/20 02:22:08;;;;;;;10.82;6.30;;;15.80;99.90;;;;;;5088271;28;20063;-81
2021/07/20 02:24:35;;;;;;;15.77;7.32;;;15.80;99.90;;;;;;5083788;28;20074;-81
2021/07/20 02:27:07;;;;;;;11.63;6.85;;;15.90;99.90;;;;;;5105044;28;20052;-82
2021/07/20 02:29:33;;;;;;;11.65;6.53;;;15.80;99.90;;;;;;5088159;28;20043;-82
2021/07/20 02:32:02;;;;;;;11.68;7.63;;;15.80;99.90;;;;;;5098847;28;20040;-82
2021/07/20 02:34:30;;;;;;;11.30;6.20;;;15.80;99.90;;;;;;5105575;28;20108;-82
2021/07/20 02:36:57;;;;;;;9.57;7.07;;;15.80;99.90;;;;;;5101110;28;20412;-82
2021/07/20 02:39:24;;;;;;;10.32;6.68;;;15.80;99.90;;;;;;5106578;28;20066;-83
2021/07/20 02:41:53;;;;;;;13.23;6.70;;;15.80;99.90;;;;;;5101168;28;20052;-82
2021/07/20 02:44:20;;;;;;;10.68;6.35;;;15.70;99.90;;;;;;5106644;28;20035;-82
2021/07/20 02:46:47;;;;;;;10.57;6.60;;;15.70;99.90;;;;;;5083907;28;20051;-81
2021/07/20 02:49:14;;;;;;;10.68;6.47;;;15.70;99.90;;;;;;5105843;28;20590;-79
2021/07/20 02:51:40;;;;;;;10.40;6.53;;;15.60;99.90;;;;;;5088523;28;20549;-80
2021/07/20 02:54:07;;;;;;;10.68;6.80;;;15.60;99.90;;;;;;5104926;28;20050;-80
2021/07/20 02:56:35;;;;;;;11.35;7.40;;;15.60;99.90;;;;;;5103161;28;20126;-79
2021/07/20 02:59:04;;;;;;;10.23;6.25;;;15.60;99.90;;;;;;5091832;28;20106;-79
2021/07/20 03:01:32;;;;;;;12.00;7.70;;;15.60;99.90;;;;;;5102411;28;20046;-79
2021/07/20 03:03:59;;;;;;;9.90;6.70;;;15.60;99.90;;;;;;5092423;28;20059;-79
2021/07/20 03:06:27;;;;;;;13.50;7.65;;;15.60;99.90;;;;;;5060681;28;20028;-79
2021/07/20 03:08:58;;;;;;;10.93;6.82;;;15.60;99.90;;;;;;5095792;27;20318;-79
2021/07/20 03:11:28;;;;;;;10.65;6.30;;;15.60;99.90;;;;;;5100416;28;20369;-79
2021/07/20 03:13:57;;;;;;;13.18;7.30;;;15.60;99.90;;;;;;5096099;28;20489;-79
2021/07/20 03:16:24;;;;;;;13.05;7.68;;;15.50;99.90;;;;;;5109551;28;20404;-79
2021/07/20 03:18:52;;;;;;;11.32;7.57;;;15.50;99.90;;;;;;5077445;28;20396;-79
2021/07/20 03:21:19;;;;;;;11.93;7.20;;;15.50;99.90;;;;;;5099495;28;20096;-79
2021/07/20 03:23:46;;;;;;;13.50;6.90;;;15.60;99.90;;;;;;5094629;28;20039;-79
2021/07/20 03:26:14;;;;;;;14.57;8.35;;;15.50;99.90;;;;;;5098913;28;20051;-81
2021/07/20 03:28:42;;;;;;;12.82;7.50;;;15.50;99.90;;;;;;5110876;28;20035;-81
2021/07/20 03:31:09;;;;;;;13.35;7.10;;;15.60;99.90;;;;;;5079543;28;20076;-80
2021/07/20 03:33:38;;;;;;;12.40;7.35;;;15.60;99.90;;;;;;5083666;28;20039;-80
2021/07/20 03:36:06;;;;;;;10.48;6.97;;;15.60;99.90;;;;;;5105700;28;20055;-80
2021/07/20 03:38:34;;;;;;;12.02;7.88;;;15.60;99.90;;;;;;5109033;28;20063;-80
2021/07/20 03:41:01;;;;;;;11.80;7.40;;;15.60;99.90;;;;;;5107791;28;20050;-80
2021/07/20 03:43:27;;;;;;;12.13;7.63;;;15.60;99.90;;;;;;5091053;28;20440;-82
2021/07/20 03:45:55;;;;;;;13.05;8.00;;;15.60;99.90;;;;;;5105292;28;20032;-81
2021/07/20 03:48:21;;;;;;;13.20;7.80;;;15.50;99.90;;;;;;5109210;28;20051;-81
2021/07/20 03:50:51;;;;;;;13.18;7.30;;;15.50;99.90;;;;;;5108409;28;20039;-81
2021/07/20 03:53:17;;;;;;;14.15;7.70;;;15.50;99.90;;;;;;5110148;28;20031;-81
2021/07/20 03:55:50;;;;;;;12.13;7.82;;;15.50;99.90;;;;;;5089083;28;20068;-81
2021/07/20 03:58:18;;;;;;;11.05;7.32;;;15.50;99.90;;;;;;5110392;28;20044;-81
2021/07/20 04:00:50;;;;;;;14.77;8.07;;;15.60;99.90;;;;;;5105325;28;20035;-81
2021/07/20 04:03:23;;;;;;;11.75;7.18;;;15.50;99.90;;;;;;5091843;28;20032;-81
2021/07/20 04:06:01;;;;;;;12.82;7.68;;;15.50;99.90;;;;;;5096674;27;20036;-81
2021/07/20 04:08:27;;;;;;;14.18;7.85;;;15.60;99.90;;;;;;5082321;28;20073;-81
2021/07/20 04:10:54;;;;;;;;;;;15.60;99.90;;;;;;5098977;28;20067;-81
2021/07/20 04:13:21;;;;;;;16.33;8.40;;;15.60;99.90;;;;;;5102688;28;19916;-81
2021/07/20 04:15:50;;;;;;;11.73;7.55;;;15.60;99.90;;;;;;5073377;28;20415;-81
2021/07/20 04:18:17;;;;;;;12.60;7.65;;;15.70;99.90;;;;;;5089451;28;20036;-81
2021/07/20 04:20:44;;;;;;;12.68;7.88;;;15.70;99.90;;;;;;5107131;28;20530;-80
2021/07/20 04:23:12;;;;;;;13.80;8.15;;;15.70;99.90;;;;;;5070905;28;20047;-81
2021/07/20 04:25:42;;;;;;;13.90;8.23;;;15.70;99.90;;;;;;5107967;28;20627;-79
2021/07/20 04:28:08;;;;;;;14.13;7.90;;;15.70;99.90;;;;;;5100945;28;20496;-79
2021/07/20 04:30:37;;;;;;;13.02;7.53;;;15.80;99.90;;;;;;5100054;28;20032;-80
2021/07/20 04:33:03;;;;;;;12.05;7.72;;;15.80;99.90;;;;;;5084427;28;20032;-80
2021/07/20 04:35:30;;;;;;;13.57;7.38;;;15.80;99.90;;;;;;5085770;28;20063;-80
2021/07/20 04:37:56;;;;;;;12.00;7.72;;;15.80;99.90;;;;;;5080789;28;20036;-82
2021/07/20 04:40:22;;;;;;;11.95;7.57;;;15.80;99.90;;;;;;5103226;28;20035;-82
2021/07/20 04:42:49;;;;;;;;;;;15.80;99.90;;;;;;5054685;28;20040;-82
2021/07/20 04:45:16;;;;;;;15.03;7.80;;;15.80;99.90;;;;;;5087193;28;20283;-82
2021/07/20 04:47:43;;;;;;;14.35;7.93;;;15.80;99.90;;;;;;5085314;28;20044;-84
2021/07/20 04:50:12;;;;;;;14.38;8.13;;;15.90;99.90;;;;;;5100963;28;20040;-80
2021/07/20 04:52:40;;;;;;;11.82;7.25;;;15.90;99.90;;;;;;5086972;28;20036;-83
2021/07/20 04:55:08;;;;;;;16.00;8.95;;;15.90;99.90;;;;;;5083636;28;20039;-82
2021/07/20 04:57:35;;;;;;;11.70;7.80;;;15.90;99.90;;;;;;5102453;28;20034;-83
2021/07/20 05:00:04;;;;;;;14.35;8.27;;;16.00;99.90;;;;;;5087632;28;20042;-82
2021/07/20 05:02:33;;;;;;;14.48;7.70;;;16.00;99.90;;;;;;5107239;28;20112;-82
2021/07/20 05:04:59;;;;;;;13.07;8.02;;;16.00;99.90;;;;;;5087534;28;20040;-82
2021/07/20 05:07:26;;;;;;;14.23;8.70;;;16.10;99.90;;;;;;5085904;28;20098;-82
2021/07/20 05:09:53;;;;;;;12.73;8.10;;;16.20;99.90;;;;;;5076828;28;20047;-83
2021/07/20 05:12:19;;;;;;;11.80;7.72;;;16.20;99.90;;;;;;5089918;28;20027;-83
2021/07/20 05:14:45;;;;;;;;;;;16.20;99.90;;;;;;5077440;28;20424;-83
2021/07/20 05:17:11;;;;;;;14.38;8.05;;;16.30;99.90;;;;;;5076971;28;20284;-83
2021/07/20 05:19:38;;;;;;;13.38;7.72;;;16.30;99.90;;;;;;5088004;28;20093;-83
2021/07/20 05:22:05;;;;;;;11.52;8.30;;;16.40;99.90;;;;;;5096000;28;20040;-83
2021/07/20 05:24:31;;;;;;;13.63;7.60;;;16.40;99.90;;;;;;5081638;28;20542;-83
2021/07/20 05:26:59;;;;;;;11.35;6.97;;;16.50;99.90;;;;;;5074057;28;20056;-83
2021/07/20 05:29:26;;;;;;;11.98;7.13;;;16.50;99.90;;;;;;5107383;28;20065;-83
2021/07/20 05:31:54;;;;;;;13.05;7.53;;;16.60;99.90;;;;;;5111156;28;20507;-83
2021/07/20 05:34:21;;;;;;;12.20;7.30;;;16.70;99.90;;;;;;5076533;28;20044;-83
2021/07/20 05:36:47;;;;;;;13.60;7.32;;;16.80;99.90;;;;;;5088173;28;20478;-83
2021/07/20 05:39:14;;;;;;;14.85;7.95;;;16.80;99.90;;;;;;5093148;28;20035;-83
2021/07/20 05:41:41;;;;;;;12.23;7.35;;;16.90;99.90;;;;;;5075593;28;20031;-83
2021/07/20 05:44:11;;;;;;;13.48;6.97;;;17.00;99.90;;;;;;5089298;28;20118;-83
2021/07/20 05:46:39;;;;;;;12.45;7.32;;;17.00;99.90;;;;;;5099430;28;20477;-83
2021/07/20 05:49:04;;;;;;;11.98;7.55;;;17.10;99.90;;;;;;5101853;28;20092;-83
2021/07/20 05:51:30;;;;;;;;;;;17.10;99.90;;;;;;5107060;28;20416;-83
2021/07/20 05:53:58;;;;;;;17.85;7.28;;;17.10;99.90;;;;;;5084913;28;19923;-83
2021/07/20 05:56:30;;;;;;;13.48;7.55;;;17.20;99.90;;;;;;5085216;28;20067;-83
2021/07/20 05:59:01;;;;;;;11.18;7.00;;;17.30;99.90;;;;;;5088889;28;20824;-84
2021/07/20 06:01:31;;;;;;;11.98;7.00;;;17.40;99.90;;;;;;5102983;28;20042;-83
2021/07/20 06:03:59;;;;;;;15.25;7.38;;;17.50;99.90;;;;;;5104478;28;20118;-83
2021/07/20 06:06:27;;;;;;;14.35;6.40;;;17.50;99.90;;;;;;5085121;28;20093;-83
2021/07/20 06:08:54;;;;;;;11.27;7.10;;;17.60;99.90;;;;;;5071346;28;20428;-83
2021/07/20 06:11:21;;;;;;;13.70;7.45;;;17.60;99.90;;;;;;5101809;28;20039;-83
2021/07/20 06:13:48;;;;;;;11.57;7.00;;;17.70;99.90;;;;;;5107403;28;20085;-83
2021/07/20 06:16:14;;;;;;;12.32;7.22;;;17.70;99.90;;;;;;5099230;28;20378;-83
2021/07/20 06:18:41;;;;;;;11.27;7.20;;;17.80;99.90;;;;;;5095479;28;20799;-83
2021/07/20 06:21:11;;;;;;;13.32;7.40;;;17.70;99.90;;;;;;5085636;28;20035;-83
2021/07/20 06:23:43;;;;;;;15.10;6.93;;;17.70;99.90;;;;;;5083698;28;20032;-83
2021/07/20 06:26:11;;;;;;;10.98;7.22;;;17.70;99.90;;;;;;5097330;28;20101;-84
2021/07/20 06:28:39;;;;;;;13.05;7.13;;;17.70;99.90;;;;;;5100149;28;20052;-83
2021/07/20 06:31:05;;;;;;;11.63;6.32;;;17.70;99.90;;;;;;5105680;28;20035;-82
2021/07/20 06:33:33;;;;;;;11.55;7.43;;;17.70;99.90;;;;;;5084676;28;20455;-83
2021/07/20 06:36:00;;;;;;;12.30;7.07;;;17.70;99.90;;;;;;5083913;28;20044;-82
2021/07/20 06:38:30;;;;;;;11.23;7.53;;;17.80;99.90;;;;;;5106935;28;20028;-83
2021/07/20 06:40:57;;;;;;;11.70;7.07;;;17.80;99.90;;;;;;5095412;28;20044;-83
2021/07/20 06:43:25;;;;;;;11.13;7.05;;;17.90;99.90;;;;;;5086085;28;20472;-83
2021/07/20 06:45:51;;;;;;;10.60;6.70;;;18.00;99.90;;;;;;5101820;28;20392;-83
2021/07/20 06:48:23;;;;;;;12.45;7.20;;;18.10;99.90;;;;;;5094525;28;20036;-83
2021/07/20 06:50:52;;;;;;;10.73;6.78;;;18.20;99.90;;;;;;5077131;28;20052;-83
2021/07/20 06:53:18;;;;;;;12.32;6.70;;;18.30;99.90;;;;;;5101378;28;20039;-84
2021/07/20 06:55:46;;;;;;;;;;;18.40;99.90;;;;;;5105433;28;20070;-84
2021/07/20 06:58:13;;;;;;;10.93;6.80;;;18.30;99.90;;;;;;5080694;28;20349;-84
2021/07/20 07:00:42;;;;;;;12.80;7.13;;;18.40;99.90;;;;;;5085775;28;20412;-83
2021/07/20 07:03:10;;;;;;;11.55;6.57;;;18.40;99.90;;;;;;5104298;28;20042;-83
2021/07/20 07:05:36;;;;;;;11.60;6.55;;;18.40;99.90;;;;;;5091638;28;20038;-84
2021/07/20 07:08:03;;;;;;;9.85;6.30;;;18.50;99.90;;;;;;5081541;28;20063;-85
2021/07/20 07:10:29;;;;;;;10.35;7.10;;;18.50;99.90;;;;;;5079574;28;20031;-85
2021/07/20 07:12:56;;;;;;;11.80;6.30;;;18.60;99.90;;;;;;5101008;28;20047;-85
2021/07/20 07:15:23;;;;;;;9.63;6.32;;;18.60;99.90;;;;;;5102549;28;20094;-85
2021/07/20 07:17:50;;;;;;;12.20;6.97;;;18.60;99.90;;;;;;5101893;28;20039;-84
2021/07/20 07:20:20;;;;;;;10.70;6.57;;;18.80;99.90;;;;;;5083795;28;20039;-84
2021/07/20 07:22:47;;;;;;;10.93;6.13;;;18.80;99.90;;;;;;5084540;28;20058;-85
2021/07/20 07:25:17;;;;;;;12.05;6.78;;;18.90;99.90;;;;;;5085008;28;20051;-84
2021/07/20 07:27:43;;;;;;;11.40;7.10;;;19.00;99.90;;;;;;5077400;28;20040;-86
2021/07/20 07:30:10;;;;;;;10.57;6.85;;;19.00;99.90;;;;;;5084116;28;20040;-84
2021/07/20 07:32:37;;;;;;;11.32;6.88;;;19.10;99.90;;;;;;5076632;28;20040;-85
2021/07/20 07:35:06;;;;;;;10.18;5.70;;;19.20;99.90;;;;;;5078273;28;20101;-85
2021/07/20 07:37:35;;;;;;;11.70;6.55;;;19.30;99.90;;;;;;5080780;28;20040;-84
2021/07/20 07:40:03;;;;;;;10.73;6.05;;;19.40;99.90;;;;;;5065986;28;20131;-84
2021/07/20 07:42:30;;;;;;;10.07;6.18;;;19.40;99.90;;;;;;5076827;28;20169;-84
2021/07/20 07:44:57;;;;;;;10.38;6.50;;;19.40;99.90;;;;;;5071406;28;20462;-84
2021/07/20 07:47:24;;;;;;;10.02;5.95;;;19.20;99.90;;;;;;5077990;28;20505;-85
2021/07/20 07:49:50;;;;;;;9.05;6.00;;;19.10;99.90;;;;;;5075629;28;20051;-85
2021/07/20 07:52:16;;;;;;;;;;;19.20;99.90;;;;;;5067254;28;20040;-84
2021/07/20 07:54:45;;;;;;;10.43;6.35;;;19.30;99.90;;;;;;5081076;28;20013;-85
2021/07/20 07:57:12;;;;;;;9.00;6.18;;;19.30;99.90;;;;;;5074372;28;20042;-85
2021/07/20 07:59:39;;;;;;;10.98;5.82;;;19.40;99.90;;;;;;5075997;28;20111;-85
2021/07/20 08:02:11;;;;;;;8.35;5.80;;;19.60;99.90;;;;;;5079542;28;20051;-85
2021/07/20 08:04:41;;;;;;;12.57;5.85;;;19.60;99.90;;;;;;5085342;28;20036;-85
2021/07/20 08:07:07;;;;;;;7.82;5.18;;;19.80;99.90;;;;;;5084945;28;20055;-85
2021/07/20 08:09:34;;;;;;;9.00;5.72;;;20.00;97.90;;;;;;5069419;28;20043;-86
2021/07/20 08:12:01;;;;;;;10.88;5.50;;;20.30;96.60;;;;;;5083977;28;20055;-85
2021/07/20 08:14:28;;;;;;;8.02;5.38;;;20.50;94.70;;;;;;5082202;28;20033;-85
2021/07/20 08:17:05;;;;;;;9.32;5.88;;;20.60;93.30;;;;;;5076731;28;20040;-85
2021/07/20 08:19:35;;;;;;;9.43;5.63;;;20.50;93.80;;;;;;5082514;28;20059;-85
2021/07/20 08:22:04;;;;;;;10.98;5.45;;;20.40;94.30;;;;;;5076449;28;20044;-85
2021/07/20 08:24:33;;;;;;;7.95;5.18;;;20.40;94.70;;;;;;5076055;28;20420;-84
2021/07/20 08:27:17;;;;;;;7.75;4.50;;;20.40;95.30;;;;;;5083539;28;20054;-85
2021/07/20 08:29:45;;;;;;;7.55;4.57;;;20.40;93.40;;;;;;5076914;28;20036;-85
2021/07/20 08:32:16;;;;;;;6.47;4.75;;;20.40;94.30;;;;;;5083327;28;20149;-84
2021/07/20 08:34:46;;;;;;;7.75;4.40;;;20.40;94.20;;;;;;5071350;28;20112;-86
2021/07/20 08:37:15;;;;;;;7.20;4.53;;;20.50;94.20;;;;;;5080271;28;20051;-85
2021/07/20 08:39:42;;;;;;;10.20;5.20;;;20.40;94.10;;;;;;5080333;28;20040;-84
2021/07/20 08:42:14;;;;;;;8.07;5.22;;;20.50;93.10;;;;;;5070658;28;20037;-85
2021/07/20 08:45:06;;;;;;;7.25;4.68;;;20.70;92.90;;;;;;5079302;28;20040;-83
2021/07/20 08:47:41;;;;;;;5.95;3.95;;;20.80;93.40;;;;;;5053974;28;20074;-84
2021/07/20 08:50:25;;;;;;;7.88;4.72;;;21.00;91.70;;;;;;5074146;28;20051;-84
2021/07/20 08:53:18;;;;;;;5.97;4.22;;;21.00;91.20;;;;;;5086209;28;20036;-85
2021/07/20 08:55:48;;;;;;;7.43;5.30;;;21.10;90.70;;;;;;5081244;28;20040;-84
2021/07/20 08:58:26;;;;;;;6.82;4.80;;;21.20;91.30;;;;;;5077407;28;20032;-84
2021/07/20 09:01:17;;;;;;;7.43;4.80;;;21.20;91.00;;;;;;5074562;28;20054;-85
2021/07/20 09:04:00;;;;;;;6.57;4.55;;;21.20;92.80;;;;;;5077334;28;20515;-84
2021/07/20 09:06:47;;;;;;;8.20;4.00;;;21.40;92.40;;;;;;5088188;28;20388;-84
2021/07/20 09:09:27;;;;;;;5.90;3.78;;;21.50;90.30;;;;;;5099336;28;20039;-85
2021/07/20 09:12:05;;;;;;;6.28;4.10;;;21.40;88.40;;;;;;5086896;28;20131;-84
2021/07/20 09:14:39;;;;;;;6.32;3.95;;;21.20;86.80;;;;;;5092275;28;20044;-85
2021/07/20 09:17:10;;;;;;;6.45;3.60;;;21.10;86.20;;;;;;5088117;28;20039;-84
2021/07/20 09:19:50;;;;;;;6.07;3.92;;;21.00;86.00;;;;;;5085568;28;20126;-85
2021/07/20 09:22:20;;;;;;;5.85;3.70;;;21.10;83.90;;;;;;5103478;28;20040;-85
2021/07/20 09:24:56;;;;;;;6.00;3.80;;;21.20;84.20;;;;;;5090413;28;20127;-84
2021/07/20 09:27:41;;;;;;;;;;;21.40;88.30;;;;;;5091906;28;20036;-85
2021/07/20 09:30:11;;;;;;;6.55;3.78;;;21.60;86.30;;;;;;5114646;27;19927;-84
2021/07/20 09:33:08;;;;;;;5.38;3.53;;;21.80;80.00;;;;;;5095650;28;20032;-85
2021/07/20 09:35:50;;;;;;;7.22;4.15;;;21.70;78.00;;;;;;5091372;28;20047;-84
2021/07/20 09:38:35;;;;;;;6.32;4.10;;;21.70;79.10;;;;;;5108938;28;20031;-85
2021/07/20 09:41:26;;;;;;;7.85;4.55;;;21.70;78.20;;;;;;5098528;27;20071;-85
2021/07/20 09:44:10;;;;;;;6.13;3.60;;;21.80;81.10;;;;;;5102198;28;20047;-84
2021/07/20 09:47:06;;;;;;;6.82;4.30;;;22.00;80.70;;;;;;5091984;28;20047;-84
2021/07/20 09:49:31;;;;;;;5.72;4.05;;;22.00;79.00;;;;;;5082196;28;20635;-85
2021/07/20 09:52:41;;;;;;;5.95;4.20;;;21.80;80.50;;;;;;5099779;27;20114;-84
2021/07/20 09:55:27;;;;;;;6.07;4.40;;;21.80;82.20;;;;;;5094951;27;20146;-83
2021/07/20 09:58:08;;;;;;;;;;;21.80;81.10;;;;;;5086925;28;20050;-83
2021/07/20 10:00:58;;;;;;;7.18;4.30;;;21.60;82.30;;;;;;5106689;27;19922;-83
2021/07/20 10:03:32;;;;;;;7.43;4.70;;;21.50;84.30;;;;;;5085591;28;20843;-85
2021/07/20 10:06:04;;;;;;;6.70;4.50;;;21.50;85.40;;;;;;5106422;28;20050;-84
2021/07/20 10:08:39;;;;;;;7.13;5.00;;;21.50;86.00;;;;;;5075513;28;20044;-84
2021/07/20 10:11:18;;;;;;;7.38;5.20;;;21.70;88.40;;;;;;5106715;28;20035;-85
2021/07/20 10:14:11;;;;;;;6.47;4.60;;;22.00;90.10;;;;;;5103048;28;20044;-85
2021/07/20 10:16:53;;;;;;;6.85;4.50;;;22.50;86.70;;;;;;5087166;28;20054;-84
2021/07/20 10:19:29;;;;;;;6.00;3.97;;;22.70;82.40;;;;;;5080418;28;20362;-84
2021/07/20 10:22:00;;;;;;;7.05;4.95;;;22.90;78.50;;;;;;5109763;28;20036;-85
2021/07/20 10:24:29;;;;;;;6.35;4.57;;;23.10;79.50;;;;;;5083671;28;20167;-85
2021/07/20 10:27:06;;;;;;;5.65;4.20;;;23.40;77.50;;;;;;5098198;28;20093;-85
2021/07/20 10:30:00;;;;;;;6.40;4.40;;;23.40;78.30;;;;;;5106436;28;20052;-85
2021/07/20 10:32:39;;;;;;;6.32;4.30;;;23.30;80.30;;;;;;5097163;28;20040;-86
2021/07/20 10:35:10;;;;;;;7.78;4.65;;;23.20;80.70;;;;;;5086779;28;20043;-86
2021/07/20 10:37:39;;;;;;;6.07;4.38;;;23.20;80.60;;;;;;5106631;28;20682;-85
2021/07/20 10:40:14;;;;;;;6.22;4.53;;;23.10;81.00;;;;;;5079115;28;20519;-85
2021/07/20 10:42:53;;;;;;;8.13;4.30;;;23.10;80.90;;;;;;5093438;28;20082;-84
2021/07/20 10:45:19;;;;;;;6.85;4.25;;;22.80;80.90;;;;;;5102075;28;20028;-83
2021/07/20 10:47:52;;;;;;;6.68;4.38;;;22.70;82.20;;;;;;5076606;28;20085;-83
2021/07/20 10:50:29;;;;;;;6.55;4.25;;;22.60;82.60;;;;;;5088722;28;20164;-85
2021/07/20 10:53:01;;;;;;;6.82;4.30;;;22.60;84.20;;;;;;5091170;28;20031;-84
2021/07/20 10:55:45;;;;;;;5.85;3.85;;;22.90;83.70;;;;;;5101347;28;20126;-85
2021/07/20 10:58:27;;;;;;;7.38;4.35;;;23.10;81.50;;;;;;5097214;28;20121;-84
2021/07/20 11:01:09;;;;;;;6.53;3.95;;;23.10;82.10;;;;;;5102667;28;20040;-85
2021/07/20 11:03:59;;;;;;;6.30;4.00;;;23.10;82.20;;;;;;5095828;28;20032;-85
2021/07/20 11:06:26;;;;;;;8.02;4.57;;;23.00;81.80;;;;;;5081399;28;20114;-84
2021/07/20 11:08:57;;;;;;;6.22;3.75;;;23.10;82.80;;;;;;5103077;28;20052;-85
2021/07/20 11:11:29;;;;;;;5.60;4.13;;;23.10;81.30;;;;;;5080543;28;20059;-84
2021/07/20 11:13:59;;;;;;;7.15;4.47;;;23.20;81.50;;;;;;5106572;28;20035;-86
2021/07/20 11:16:26;;;;;;;7.93;4.63;;;23.40;79.80;;;;;;5083052;28;20472;-85
2021/07/20 11:18:54;;;;;;;5.55;3.72;;;23.40;80.90;;;;;;5082440;28;20392;-85
2021/07/20 11:21:24;;;;;;;5.72;4.15;;;23.60;78.40;;;;;;5108675;28;20032;-85
2021/07/20 11:23:51;;;;;;;5.82;3.92;;;23.50;76.80;;;;;;5100524;28;20040;-85
2021/07/20 11:26:18;;;;;;;5.97;3.72;;;23.50;78.70;;;;;;5108908;28;20028;-86
2021/07/20 11:28:45;;;;;;;6.43;3.92;;;23.60;78.40;;;;;;5064694;28;20048;-85
2021/07/20 11:31:26;;;;;;;7.32;3.90;;;23.60;78.20;;;;;;5076541;28;20040;-85
2021/07/20 11:34:21;;;;;;;5.75;3.95;;;23.50;77.90;;;;;;5080184;28;20063;-85
2021/07/20 11:36:47;;;;;;;5.35;4.00;;;23.50;77.50;;;;;;5077341;28;20051;-85
2021/07/20 11:39:16;;;;;;;6.05;4.40;;;23.50;78.00;;;;;;5087595;28;20036;-85
2021/07/20 11:41:59;;;;;;;8.85;3.53;;;23.30;78.50;;;;;;5077690;28;20499;-84
2021/07/20 11:44:44;;;;;;;5.47;4.05;;;23.10;78.40;;;;;;5083181;28;20040;-85
2021/07/20 11:47:36;;;;;;;5.07;3.78;;;22.90;78.90;;;;;;5080205;28;20051;-85
2021/07/20 11:50:15;;;;;;;5.53;3.70;;;22.70;79.50;;;;;;5077652;28;20036;-84
2021/07/20 11:52:47;;;;;;;6.10;3.90;;;22.60;81.00;;;;;;5069706;28;20058;-84
2021/07/20 11:55:38;;;;;;;6.00;3.40;;;22.70;80.90;;;;;;5074531;28;20048;-85
2021/07/20 11:58:22;;;;;;;7.18;4.00;;;22.70;83.10;;;;;;5077766;28;20385;-85
2021/07/20 12:01:16;;;;;;;6.38;3.53;;;22.70;82.40;;;;;;5084852;28;20046;-85
2021/07/20 12:04:02;;;;;;;7.38;4.20;;;22.80;83.10;;;;;;5073298;28;20101;-85
2021/07/20 12:06:30;;;;;;;5.28;3.90;;;22.90;83.70;;;;;;5081547;28;20036;-85
2021/07/20 12:09:32;;;;;;;5.43;4.03;;;23.30;82.40;;;;;;5080851;28;20048;-85
2021/07/20 12:11:59;;;;;;;7.80;4.38;;;23.60;80.60;;;;;;5040271;28;20180;-85
2021/07/20 12:14:25;;;;;;;6.38;4.05;;;24.00;79.20;;;;;;5074020;28;20052;-85
2021/07/20 12:16:54;;;;;;;5.93;4.05;;;24.10;80.10;;;;;;5084648;28;20048;-83
2021/07/20 12:19:29;;;;;;;6.05;4.00;;;24.30;77.20;;;;;;5081491;28;20044;-84
2021/07/20 12:22:00;;;;;;;6.72;3.85;;;24.20;77.70;;;;;;5087497;28;20032;-87
2021/07/20 12:24:27;;;;;;;6.10;3.80;;;24.20;78.30;;;;;;5081803;28;20038;-88
2021/07/20 12:26:53;;;;;;;6.35;4.15;;;24.20;78.40;;;;;;5081535;28;20044;-86
2021/07/20 12:29:19;;;;;;;6.03;4.25;;;24.20;77.10;;;;;;5091762;28;20052;-87
2021/07/20 12:31:48;;;;;;;5.10;3.67;;;23.90;78.10;;;;;;5087704;28;20036;-87
2021/07/20 12:34:14;;;;;;;5.57;4.10;;;23.70;78.60;;;;;;5077530;28;20044;-86
2021/07/20 12:36:40;;;;;;;7.20;4.20;;;23.50;79.00;;;;;;5063965;28;20124;-87
2021/07/20 12:39:07;;;;;;;5.20;3.92;;;23.50;80.80;;;;;;5087784;28;20632;-88
2021/07/20 12:41:35;;;;;;;5.18;3.72;;;23.60;81.10;;;;;;5083714;28;20038;-87
2021/07/20 12:44:01;;;;;;;5.78;4.00;;;23.40;81.00;;;;;;5082322;28;20052;-86
2021/07/20 12:46:35;;;;;;;6.60;3.90;;;23.50;81.40;;;;;;5073846;28;20067;-88
2021/07/20 12:49:00;;;;;;;5.13;3.85;;;23.70;80.10;;;;;;5077909;28;20055;-87
2021/07/20 12:51:26;;;;;;;5.97;4.15;;;24.00;79.10;;;;;;5076288;28;20120;-87
2021/07/20 12:53:55;;;;;;;5.82;4.35;;;24.20;78.60;;;;;;5082979;28;20044;-87
2021/07/20 12:56:26;;;;;;;6.03;3.70;;;24.40;78.30;;;;;;5079453;28;20044;-88
2021/07/20 12:59:03;;;;;;;5.57;4.30;;;24.40;77.90;;;;;;5081615;28;20047;-87
2021/07/20 13:01:31;;;;;;;5.20;3.72;;;24.60;77.10;;;;;;5093811;28;20035;-87
2021/07/20 13:03:58;;;;;;;4.93;3.83;;;24.70;76.30;;;;;;5087121;28;20168;-87
2021/07/20 13:06:24;;;;;;;5.35;4.00;;;24.60;76.10;;;;;;5083432;28;20040;-86
2021/07/20 13:08:52;;;;;;;5.30;4.07;;;24.30;76.20;;;;;;5081336;28;20044;-87